Time;durP1;ratioP1;P1;durP2;ratioP2;P2;SDS_P1;SDS_P2;PMS_P1;PMS_P2;Temp;Humidity;BMP_temperature;BMP_pressure;BME280_temperature;BME280_humidity;BME280_pressure;Samples;Min_cycle;Max_cycle;Signal;HPM_P1;HPM_P2
2021/07/03 00:01:57;;;;;;;3.70;0.60;;;21.30;76.00;;;;;;5097102;28;20027;-70
2021/07/03 00:04:24;;;;;;;1.70;0.50;;;21.30;76.00;;;;;;5097434;28;20113;-70
2021/07/03 00:06:49;;;;;;;2.15;0.80;;;21.30;75.50;;;;;;5096989;28;20028;-70
2021/07/03 00:09:16;;;;;;;1.45;0.52;;;21.30;75.80;;;;;;5097240;28;20047;-70
2021/07/03 00:11:42;;;;;;;3.63;0.60;;;21.30;75.50;;;;;;5096986;28;20023;-70
2021/07/03 00:14:09;;;;;;;4.93;1.05;;;21.30;75.20;;;;;;5097001;28;20298;-70
2021/07/03 00:16:35;;;;;;;2.70;0.80;;;21.30;75.50;;;;;;5096877;28;20107;-70
2021/07/03 00:19:01;;;;;;;1.25;0.60;;;21.20;75.40;;;;;;5096788;28;20119;-70
2021/07/03 00:21:28;;;;;;;1.40;0.73;;;21.10;75.70;;;;;;5097170;28;20043;-70
2021/07/03 00:23:53;;;;;;;2.05;0.70;;;21.10;75.60;;;;;;5097069;28;20059;-70
2021/07/03 00:26:19;;;;;;;2.00;0.55;;;21.20;75.70;;;;;;5097098;28;20024;-70
2021/07/03 00:28:45;;;;;;;1.38;0.60;;;21.20;75.30;;;;;;5096979;28;20306;-70
2021/07/03 00:31:11;;;;;;;2.17;0.70;;;21.20;74.70;;;;;;5096696;28;20016;-70
2021/07/03 00:33:36;;;;;;;3.58;0.80;;;21.20;74.50;;;;;;5097013;28;20055;-70
2021/07/03 00:36:02;;;;;;;1.88;0.63;;;21.10;75.70;;;;;;5096666;28;20069;-70
2021/07/03 00:38:28;;;;;;;2.20;0.80;;;21.00;76.00;;;;;;5096999;28;20028;-70
2021/07/03 00:40:54;;;;;;;1.52;0.80;;;21.00;76.10;;;;;;5096974;28;20103;-70
2021/07/03 00:43:19;;;;;;;4.78;0.80;;;20.90;75.70;;;;;;5097009;28;20035;-70
2021/07/03 00:45:45;;;;;;;2.25;1.08;;;20.60;76.50;;;;;;5096922;28;20054;-70
2021/07/03 00:48:11;;;;;;;1.95;0.77;;;20.60;77.10;;;;;;5096550;28;20028;-70
2021/07/03 00:50:37;;;;;;;1.98;0.70;;;20.50;77.30;;;;;;5096600;28;20107;-70
2021/07/03 00:53:03;;;;;;;3.50;0.90;;;20.30;77.40;;;;;;5096538;28;20111;-70
2021/07/03 00:55:29;;;;;;;2.03;0.77;;;20.20;77.70;;;;;;5096535;28;20138;-70
2021/07/03 00:57:55;;;;;;;1.15;0.80;;;20.10;79.40;;;;;;5096826;28;20419;-70
2021/07/03 01:00:21;;;;;;;2.28;0.80;;;20.00;78.70;;;;;;5096818;28;20017;-70
2021/07/03 01:02:48;;;;;;;1.42;0.60;;;20.00;78.50;;;;;;5096467;28;20153;-70
2021/07/03 01:05:14;;;;;;;3.42;0.70;;;20.00;79.30;;;;;;5096436;28;20027;-70
2021/07/03 01:07:40;;;;;;;1.98;1.00;;;19.80;78.40;;;;;;5096352;28;20039;-70
2021/07/03 01:10:27;;;;;;;2.30;0.88;;;19.70;78.90;;;;;;5096496;28;20031;-70
2021/07/03 01:12:53;;;;;;;1.30;0.68;;;19.70;78.20;;;;;;5096722;28;20051;-70
2021/07/03 01:15:19;;;;;;;5.45;2.78;;;19.80;77.40;;;;;;5096741;28;20020;-70
2021/07/03 01:17:45;;;;;;;1.58;0.80;;;19.90;76.40;;;;;;5096363;28;20039;-70
2021/07/03 01:20:12;;;;;;;2.95;0.80;;;20.00;76.40;;;;;;5096277;28;20115;-70
2021/07/03 01:22:42;;;;;;;2.55;0.98;;;20.10;75.20;;;;;;5096609;28;20036;-70
2021/07/03 01:25:09;;;;;;;1.45;0.75;;;20.20;75.30;;;;;;5096569;28;20028;-70
2021/07/03 01:27:34;;;;;;;2.03;0.90;;;20.30;75.50;;;;;;5096486;28;20099;-70
2021/07/03 01:30:01;;;;;;;2.03;0.75;;;20.40;74.30;;;;;;5096520;28;20124;-70
2021/07/03 01:32:26;;;;;;;2.72;0.60;;;20.30;75.40;;;;;;5096518;28;20077;-70
2021/07/03 01:34:52;;;;;;;3.20;1.10;;;20.30;73.90;;;;;;5097406;28;20354;-70
2021/07/03 01:37:18;;;;;;;2.70;0.88;;;20.30;75.10;;;;;;5099831;28;20020;-70
2021/07/03 01:39:43;;;;;;;2.13;0.70;;;20.30;75.00;;;;;;5099796;28;20024;-70
2021/07/03 01:42:09;;;;;;;3.63;0.88;;;20.40;74.80;;;;;;5100048;28;20027;-70
2021/07/03 01:44:36;;;;;;;1.80;1.08;;;20.40;74.60;;;;;;5099694;28;20063;-70
2021/07/03 01:47:03;;;;;;;1.27;0.70;;;20.30;76.10;;;;;;5099929;28;20039;-70
2021/07/03 01:49:35;;;;;;;1.85;0.82;;;20.30;75.10;;;;;;5099826;28;20119;-71
2021/07/03 01:52:01;;;;;;;4.85;0.80;;;20.40;75.30;;;;;;5099914;28;20020;-71
2021/07/03 01:54:27;;;;;;;1.73;0.82;;;20.30;75.80;;;;;;5099420;28;20059;-71
2021/07/03 01:56:59;;;;;;;3.90;0.60;;;20.30;76.10;;;;;;5099468;28;20044;-71
2021/07/03 01:59:31;;;;;;;1.77;0.80;;;20.30;76.50;;;;;;5099768;28;20020;-71
2021/07/03 02:02:00;;;;;;;1.42;0.55;;;20.20;76.40;;;;;;5099730;28;20028;-71
2021/07/03 02:04:26;;;;;;;1.30;0.60;;;20.00;76.50;;;;;;5099417;28;20020;-71
2021/07/03 02:06:52;;;;;;;6.28;1.10;;;19.90;76.50;;;;;;5099227;28;20408;-71
2021/07/03 02:09:18;;;;;;;6.43;0.90;;;19.90;76.80;;;;;;5099161;28;20049;-71
2021/07/03 02:11:44;;;;;;;1.30;0.70;;;19.80;76.60;;;;;;5099160;28;20020;-71
2021/07/03 02:14:11;;;;;;;1.65;0.80;;;19.80;77.30;;;;;;5099644;28;20103;-71
2021/07/03 02:16:37;;;;;;;7.88;0.70;;;19.80;77.40;;;;;;5099394;28;20039;-71
2021/07/03 02:19:04;;;;;;;2.40;0.70;;;19.70;78.00;;;;;;5099054;28;20056;-71
2021/07/03 02:21:30;;;;;;;3.22;0.63;;;19.70;78.20;;;;;;5099006;28;20406;-71
2021/07/03 02:23:55;;;;;;;1.00;0.60;;;19.60;78.80;;;;;;5099248;28;20031;-71
2021/07/03 02:26:22;;;;;;;5.80;0.77;;;19.40;79.30;;;;;;5099212;28;20024;-71
2021/07/03 02:28:49;;;;;;;3.20;0.77;;;19.30;79.70;;;;;;5099125;28;20024;-70
2021/07/03 02:31:15;;;;;;;3.17;1.55;;;19.30;80.10;;;;;;5099157;28;20089;-71
2021/07/03 02:33:41;;;;;;;1.75;0.73;;;19.30;80.00;;;;;;5099041;28;20024;-70
2021/07/03 02:36:07;;;;;;;1.42;0.80;;;19.30;80.10;;;;;;5098698;28;20032;-71
2021/07/03 02:38:32;;;;;;;4.05;1.20;;;19.20;80.20;;;;;;5098988;28;20023;-70
2021/07/03 02:40:58;;;;;;;2.03;0.82;;;19.10;80.60;;;;;;5098946;28;20392;-71
2021/07/03 02:43:24;;;;;;;4.18;0.93;;;19.00;80.70;;;;;;5098717;28;20362;-71
2021/07/03 02:45:50;;;;;;;1.65;0.77;;;18.90;81.40;;;;;;5097986;28;20040;-71
2021/07/03 02:48:15;;;;;;;1.48;0.52;;;18.90;81.20;;;;;;5097865;28;20031;-71
2021/07/03 02:50:41;;;;;;;3.53;0.90;;;19.00;81.40;;;;;;5098758;28;20316;-71
2021/07/03 02:53:07;;;;;;;1.90;0.70;;;18.90;81.40;;;;;;5098418;28;20323;-71
2021/07/03 02:55:32;;;;;;;4.57;0.80;;;18.90;81.30;;;;;;5098185;28;20051;-71
2021/07/03 02:57:58;;;;;;;2.85;0.85;;;19.00;81.40;;;;;;5098657;28;20028;-70
2021/07/03 03:00:25;;;;;;;1.15;0.80;;;19.00;81.60;;;;;;5098603;28;20028;-71
2021/07/03 03:02:51;;;;;;;2.13;0.68;;;19.00;81.40;;;;;;5098497;28;20024;-71
2021/07/03 03:05:17;;;;;;;1.58;0.75;;;19.00;81.30;;;;;;5098163;28;20031;-71
2021/07/03 03:07:43;;;;;;;3.17;0.90;;;19.00;80.40;;;;;;5098387;28;20324;-71
2021/07/03 03:10:12;;;;;;;2.15;0.60;;;19.10;80.90;;;;;;5098106;28;20082;-71
2021/07/03 03:12:37;;;;;;;5.00;1.13;;;19.00;80.70;;;;;;5098283;28;20346;-71
2021/07/03 03:15:05;;;;;;;1.35;0.80;;;19.10;80.30;;;;;;5098267;28;20108;-71
2021/07/03 03:17:30;;;;;;;2.83;0.82;;;19.10;80.30;;;;;;5097913;28;20099;-71
2021/07/03 03:19:56;;;;;;;1.27;0.60;;;19.10;79.90;;;;;;5098194;28;20365;-71
2021/07/03 03:22:22;;;;;;;1.70;0.70;;;19.10;79.80;;;;;;5097862;28;20024;-71
2021/07/03 03:24:47;;;;;;;1.70;0.50;;;19.20;79.70;;;;;;5098144;28;20107;-70
2021/07/03 03:27:14;;;;;;;2.28;0.70;;;19.10;80.00;;;;;;5097666;28;20024;-71
2021/07/03 03:29:39;;;;;;;1.63;0.70;;;19.20;80.00;;;;;;5097928;28;20039;-71
2021/07/03 03:32:06;;;;;;;2.97;0.70;;;19.20;80.10;;;;;;5097683;28;20016;-71
2021/07/03 03:34:31;;;;;;;1.25;0.63;;;19.10;80.40;;;;;;5097673;28;20066;-71
2021/07/03 03:36:57;;;;;;;2.10;0.45;;;19.00;81.20;;;;;;5097841;28;20028;-71
2021/07/03 03:39:23;;;;;;;1.88;0.70;;;19.00;81.20;;;;;;5097839;28;20051;-71
2021/07/03 03:41:48;;;;;;;3.15;0.80;;;19.00;81.50;;;;;;5097806;28;20103;-71
2021/07/03 03:44:14;;;;;;;3.25;0.60;;;19.10;80.70;;;;;;5097919;28;20035;-71
2021/07/03 03:46:40;;;;;;;1.90;0.60;;;19.10;80.80;;;;;;5097651;28;20028;-71
2021/07/03 03:49:06;;;;;;;2.55;0.80;;;19.20;80.50;;;;;;5097254;28;20097;-71
2021/07/03 03:51:32;;;;;;;1.42;0.70;;;19.20;80.90;;;;;;5097610;28;20020;-71
2021/07/03 03:53:58;;;;;;;5.85;0.85;;;19.20;80.70;;;;;;5097579;28;20017;-71
2021/07/03 03:56:23;;;;;;;4.20;0.60;;;19.10;81.30;;;;;;5097150;28;20044;-71
2021/07/03 03:58:49;;;;;;;1.98;0.70;;;19.10;81.80;;;;;;5097207;28;20431;-71
2021/07/03 04:01:14;;;;;;;1.50;0.73;;;19.20;81.90;;;;;;5097172;28;20470;-71
2021/07/03 04:03:40;;;;;;;1.80;0.70;;;19.30;81.80;;;;;;5097104;28;20028;-70
2021/07/03 04:06:06;;;;;;;2.25;0.93;;;19.30;81.50;;;;;;5097057;28;20032;-70
2021/07/03 04:08:31;;;;;;;2.28;0.80;;;19.40;81.70;;;;;;5097266;28;20072;-70
2021/07/03 04:10:57;;;;;;;0.82;0.60;;;19.50;80.90;;;;;;5097037;28;20297;-71
2021/07/03 04:13:23;;;;;;;5.38;0.70;;;19.60;80.40;;;;;;5096881;28;20031;-70
2021/07/03 04:15:48;;;;;;;3.08;0.70;;;19.60;80.90;;;;;;5097254;28;20032;-71
2021/07/03 04:18:14;;;;;;;0.85;0.75;;;19.70;80.80;;;;;;5097230;28;20417;-71
2021/07/03 04:20:40;;;;;;;5.32;0.80;;;19.70;81.40;;;;;;5097161;28;20028;-71
2021/07/03 04:23:06;;;;;;;1.90;0.50;;;19.70;81.60;;;;;;5097140;28;20099;-71
2021/07/03 04:25:31;;;;;;;2.55;0.60;;;19.80;80.10;;;;;;5096800;28;20028;-71
2021/07/03 04:27:57;;;;;;;1.27;0.70;;;19.90;81.00;;;;;;5097027;28;20032;-70
2021/07/03 04:30:23;;;;;;;2.80;1.30;;;19.80;81.60;;;;;;5096792;28;20043;-71
2021/07/03 04:32:49;;;;;;;1.65;0.60;;;19.80;81.70;;;;;;5096723;28;20081;-70
2021/07/03 04:35:16;;;;;;;1.92;0.77;;;19.90;81.60;;;;;;5097004;28;20032;-71
2021/07/03 04:37:41;;;;;;;2.85;0.90;;;20.00;81.20;;;;;;5097028;28;20096;-71
2021/07/03 04:40:09;;;;;;;1.95;0.73;;;20.10;80.90;;;;;;5096999;28;20372;-71
2021/07/03 04:42:35;;;;;;;1.77;0.77;;;20.20;81.60;;;;;;5096968;28;20024;-71
2021/07/03 04:45:00;;;;;;;1.10;0.65;;;20.30;81.90;;;;;;5078763;28;20024;-71
2021/07/03 04:47:26;;;;;;;4.32;0.70;;;20.40;79.30;;;;;;5096660;28;20312;-71
2021/07/03 04:49:52;;;;;;;2.58;0.90;;;20.50;77.10;;;;;;5096861;28;20033;-71
2021/07/03 04:52:17;;;;;;;0.93;0.60;;;20.60;77.70;;;;;;5096910;28;20027;-70
2021/07/03 04:54:43;;;;;;;1.65;0.93;;;20.70;77.30;;;;;;5096427;28;20408;-71
2021/07/03 04:57:10;;;;;;;1.17;0.60;;;20.80;77.80;;;;;;5096552;28;20028;-71
2021/07/03 04:59:37;;;;;;;4.57;0.70;;;20.80;77.70;;;;;;5096782;28;20047;-71
2021/07/03 05:02:05;;;;;;;1.75;0.70;;;20.80;77.90;;;;;;5096490;28;20044;-71
2021/07/03 05:04:30;;;;;;;2.70;0.70;;;20.80;75.60;;;;;;5096827;28;20066;-71
2021/07/03 05:06:56;;;;;;;2.00;0.70;;;20.80;74.10;;;;;;5096397;28;20416;-71
2021/07/03 05:09:22;;;;;;;4.93;0.98;;;20.80;74.50;;;;;;5096754;28;20114;-71
2021/07/03 05:11:47;;;;;;;0.90;0.50;;;20.80;73.70;;;;;;5100407;28;20024;-71
2021/07/03 05:14:13;;;;;;;1.40;0.60;;;20.80;75.00;;;;;;5100737;28;20028;-71
2021/07/03 05:16:38;;;;;;;1.35;0.70;;;20.90;75.00;;;;;;5100556;28;20024;-71
2021/07/03 05:19:04;;;;;;;2.70;0.80;;;20.90;74.30;;;;;;5100230;28;20038;-71
2021/07/03 05:21:30;;;;;;;2.03;0.70;;;20.90;74.10;;;;;;5100193;28;20029;-71
2021/07/03 05:23:55;;;;;;;1.25;0.60;;;20.90;74.80;;;;;;5100423;28;20028;-71
2021/07/03 05:26:21;;;;;;;1.88;0.75;;;21.00;73.60;;;;;;5101083;28;20024;-71
2021/07/03 05:28:46;;;;;;;1.38;0.90;;;21.10;74.40;;;;;;5100594;28;20028;-71
2021/07/03 05:31:12;;;;;;;1.35;0.70;;;21.10;74.80;;;;;;5100308;28;20293;-71
2021/07/03 05:33:38;;;;;;;2.33;0.75;;;21.10;72.00;;;;;;5100265;28;20023;-70
2021/07/03 05:36:04;;;;;;;1.42;0.55;;;21.20;72.20;;;;;;5099883;28;20016;-71
2021/07/03 05:38:30;;;;;;;2.47;0.60;;;21.30;74.30;;;;;;5099862;28;20028;-71
2021/07/03 05:40:59;;;;;;;5.25;0.55;;;21.50;75.00;;;;;;5099816;28;20024;-71
2021/07/03 05:43:26;;;;;;;1.10;0.68;;;21.50;73.80;;;;;;5099867;28;20040;-70
2021/07/03 05:45:52;;;;;;;3.60;0.77;;;21.50;71.90;;;;;;5100000;28;20082;-71
2021/07/03 05:48:17;;;;;;;1.42;0.57;;;21.50;72.30;;;;;;5099937;28;20354;-71
2021/07/03 05:50:43;;;;;;;1.17;0.60;;;21.40;73.20;;;;;;5099654;28;20107;-71
2021/07/03 05:53:08;;;;;;;1.52;0.70;;;21.40;72.90;;;;;;5099879;28;20028;-71
2021/07/03 05:55:34;;;;;;;0.95;0.57;;;21.50;72.80;;;;;;5099385;28;20040;-71
2021/07/03 05:58:00;;;;;;;1.90;0.50;;;21.50;72.70;;;;;;5099503;28;20060;-71
2021/07/03 06:00:25;;;;;;;1.73;0.60;;;21.60;73.50;;;;;;5099795;28;20059;-71
2021/07/03 06:02:51;;;;;;;1.30;0.70;;;21.70;72.40;;;;;;5099684;28;20319;-71
2021/07/03 06:05:17;;;;;;;1.63;0.88;;;21.80;71.70;;;;;;5099336;28;20046;-71
2021/07/03 06:07:43;;;;;;;2.58;0.60;;;21.90;71.30;;;;;;5099582;28;20068;-71
2021/07/03 06:10:09;;;;;;;2.40;0.50;;;22.10;70.50;;;;;;5099579;28;20316;-71
2021/07/03 06:12:35;;;;;;;1.48;0.60;;;22.30;70.10;;;;;;5099469;28;20054;-71
2021/07/03 06:15:01;;;;;;;1.98;0.50;;;22.40;69.70;;;;;;5099132;28;20020;-71
2021/07/03 06:17:27;;;;;;;1.15;0.50;;;22.60;67.50;;;;;;5099460;28;20336;-71
2021/07/03 06:19:52;;;;;;;1.58;1.20;;;23.00;68.20;;;;;;5099121;28;20036;-71
2021/07/03 06:22:18;;;;;;;4.15;0.88;;;23.50;66.90;;;;;;5098879;28;20035;-71
2021/07/03 06:24:45;;;;;;;1.30;0.60;;;23.90;66.60;;;;;;5099029;28;20028;-71
2021/07/03 06:27:11;;;;;;;1.60;0.60;;;24.00;65.80;;;;;;5098901;28;20035;-71
2021/07/03 06:29:37;;;;;;;1.02;0.50;;;24.10;66.90;;;;;;5099102;28;20035;-71
2021/07/03 06:32:06;;;;;;;1.15;0.60;;;24.40;67.40;;;;;;5099150;28;20023;-71
2021/07/03 06:34:32;;;;;;;1.05;0.50;;;24.60;66.90;;;;;;5099169;28;20020;-71
2021/07/03 06:36:58;;;;;;;0.95;0.50;;;24.70;65.50;;;;;;5098736;28;20415;-71
2021/07/03 06:39:24;;;;;;;1.00;0.52;;;24.70;64.10;;;;;;5099035;28;20024;-71
2021/07/03 06:41:50;;;;;;;1.25;0.63;;;25.10;64.50;;;;;;5098943;28;20309;-71
2021/07/03 06:44:16;;;;;;;2.38;0.50;;;25.60;63.40;;;;;;5098924;28;20054;-71
2021/07/03 06:46:42;;;;;;;1.95;0.52;;;25.90;62.20;;;;;;5098464;28;20039;-71
2021/07/03 06:49:07;;;;;;;1.88;1.00;;;26.30;61.80;;;;;;5098444;28;20028;-71
2021/07/03 06:51:33;;;;;;;2.58;0.70;;;26.80;59.90;;;;;;5098743;28;20024;-71
2021/07/03 06:54:01;;;;;;;1.45;0.52;;;27.10;60.10;;;;;;5098669;28;20059;-71
2021/07/03 06:56:29;;;;;;;1.30;0.60;;;27.40;60.50;;;;;;5098264;28;20044;-71
2021/07/03 06:58:55;;;;;;;6.20;0.60;;;27.30;58.90;;;;;;5098611;28;20024;-71
2021/07/03 07:01:21;;;;;;;1.10;0.40;;;27.10;61.00;;;;;;5080412;28;20080;-71
2021/07/03 07:03:46;;;;;;;1.85;0.60;;;26.50;61.60;;;;;;5098512;28;20404;-71
2021/07/03 07:06:12;;;;;;;1.75;0.50;;;26.30;61.80;;;;;;5098469;28;20031;-71
2021/07/03 07:08:38;;;;;;;2.35;0.50;;;25.80;62.70;;;;;;5098395;28;20045;-71
2021/07/03 07:11:04;;;;;;;1.13;0.70;;;25.30;63.20;;;;;;5098420;28;20024;-71
2021/07/03 07:13:30;;;;;;;1.10;0.43;;;24.80;65.10;;;;;;5098112;28;20077;-71
2021/07/03 07:15:55;;;;;;;2.08;0.60;;;24.30;65.50;;;;;;5097960;28;20031;-71
2021/07/03 07:18:21;;;;;;;1.20;0.60;;;24.10;65.40;;;;;;5097958;28;20111;-71
2021/07/03 07:20:47;;;;;;;2.53;0.70;;;24.40;66.10;;;;;;5098234;28;20035;-71
2021/07/03 07:23:12;;;;;;;1.77;0.70;;;25.40;64.20;;;;;;5098132;28;20050;-71
2021/07/03 07:25:39;;;;;;;4.22;0.80;;;25.40;62.40;;;;;;5098109;28;20032;-71
2021/07/03 07:28:05;;;;;;;1.55;0.70;;;25.50;64.30;;;;;;5097983;28;20024;-71
2021/07/03 07:30:31;;;;;;;2.45;0.70;;;25.70;63.90;;;;;;5098037;28;20047;-71
2021/07/03 07:32:56;;;;;;;1.35;0.50;;;25.60;63.70;;;;;;5097395;28;20408;-71
2021/07/03 07:35:22;;;;;;;1.98;0.60;;;26.10;63.90;;;;;;5097878;28;20072;-71
2021/07/03 07:37:49;;;;;;;0.82;0.38;;;26.20;60.80;;;;;;5097593;28;20017;-71
2021/07/03 07:40:15;;;;;;;1.83;0.60;;;25.80;65.50;;;;;;5097882;28;20029;-71
2021/07/03 07:42:41;;;;;;;1.50;0.45;;;25.50;64.50;;;;;;5097736;28;20304;-71
2021/07/03 07:45:08;;;;;;;1.67;0.50;;;25.20;65.90;;;;;;5097743;28;20032;-71
2021/07/03 07:47:33;;;;;;;2.70;0.40;;;25.00;65.70;;;;;;5097629;28;20028;-71
2021/07/03 07:49:59;;;;;;;2.58;0.73;;;25.00;68.60;;;;;;5097373;28;20305;-71
2021/07/03 07:52:25;;;;;;;1.70;0.60;;;24.90;67.90;;;;;;5097648;28;20024;-71
2021/07/03 07:54:51;;;;;;;2.67;0.65;;;25.00;68.50;;;;;;5097401;28;20505;-71
2021/07/03 07:57:17;;;;;;;1.15;0.50;;;25.00;67.90;;;;;;5097527;28;20362;-71
2021/07/03 07:59:43;;;;;;;1.60;0.70;;;24.70;67.10;;;;;;5097218;28;20032;-71
2021/07/03 08:02:08;;;;;;;1.67;0.60;;;24.50;67.60;;;;;;5097456;28;20081;-71
2021/07/03 08:04:35;;;;;;;1.48;0.70;;;24.50;66.80;;;;;;5097168;28;20027;-71
2021/07/03 08:07:00;;;;;;;1.58;0.80;;;24.50;66.40;;;;;;5097341;28;20028;-71
2021/07/03 08:09:26;;;;;;;1.33;0.88;;;24.60;66.20;;;;;;5096967;28;20077;-71
2021/07/03 08:11:51;;;;;;;2.03;0.70;;;25.10;66.70;;;;;;5097342;28;20032;-71
2021/07/03 08:14:18;;;;;;;1.55;0.90;;;25.80;64.40;;;;;;5097347;28;20078;-71
2021/07/03 08:16:43;;;;;;;6.68;0.80;;;26.60;62.80;;;;;;5097218;28;20092;-71
2021/07/03 08:19:09;;;;;;;3.03;0.68;;;26.80;61.50;;;;;;5097214;28;20408;-71
2021/07/03 08:21:35;;;;;;;1.30;0.63;;;26.80;61.70;;;;;;5097208;28;20412;-71
2021/07/03 08:24:00;;;;;;;2.03;1.00;;;26.60;62.50;;;;;;5096849;28;20041;-71
2021/07/03 08:26:26;;;;;;;3.17;0.60;;;26.30;64.40;;;;;;5096869;28;20028;-71
2021/07/03 08:28:52;;;;;;;1.95;0.70;;;26.10;62.60;;;;;;5096786;28;20032;-71
2021/07/03 08:31:18;;;;;;;4.13;0.75;;;26.30;63.80;;;;;;5097077;28;20020;-71
2021/07/03 08:33:43;;;;;;;4.35;0.70;;;27.00;62.10;;;;;;5097070;28;20106;-71
2021/07/03 08:36:09;;;;;;;1.00;0.60;;;27.80;61.90;;;;;;5097058;28;20031;-71
2021/07/03 08:38:35;;;;;;;1.73;0.80;;;28.50;58.40;;;;;;5097049;28;20294;-71
2021/07/03 08:41:00;;;;;;;2.55;0.70;;;28.90;57.80;;;;;;5097031;28;20459;-71
2021/07/03 08:43:26;;;;;;;1.35;0.70;;;29.00;58.70;;;;;;5097028;28;20359;-71
2021/07/03 08:45:57;;;;;;;1.35;0.70;;;29.10;57.70;;;;;;5099709;28;20052;-71
2021/07/03 08:48:23;;;;;;;1.60;0.65;;;29.20;57.70;;;;;;5100757;28;20435;-71
2021/07/03 08:50:49;;;;;;;1.75;0.75;;;29.70;56.80;;;;;;5100811;28;20024;-71
2021/07/03 08:53:14;;;;;;;1.85;0.80;;;30.10;57.00;;;;;;5101066;28;20108;-71
2021/07/03 08:55:40;;;;;;;1.30;0.80;;;30.20;55.60;;;;;;5100527;28;20428;-72
2021/07/03 08:58:08;;;;;;;2.03;0.60;;;30.50;56.00;;;;;;5100683;28;20028;-72
2021/07/03 09:00:42;;;;;;;1.75;0.55;;;30.30;59.90;;;;;;5100616;28;20052;-71
2021/07/03 09:03:24;;;;;;;4.65;0.80;;;29.70;59.30;;;;;;5100906;28;20020;-71
2021/07/03 09:05:54;;;;;;;1.13;0.70;;;29.00;58.60;;;;;;5100496;28;20052;-71
2021/07/03 09:08:22;;;;;;;5.13;0.70;;;28.50;58.40;;;;;;5100394;28;20036;-71
2021/07/03 09:10:58;;;;;;;1.50;0.68;;;28.50;63.80;;;;;;5100785;28;20312;-71
2021/07/03 09:13:23;;;;;;;6.35;0.80;;;28.80;59.30;;;;;;5100614;28;20028;-71
2021/07/03 09:15:49;;;;;;;3.10;0.80;;;29.40;58.60;;;;;;5100640;28;20032;-71
2021/07/03 09:18:16;;;;;;;1.90;0.88;;;29.90;59.90;;;;;;5100582;28;20054;-71
2021/07/03 09:20:50;;;;;;;2.55;0.90;;;30.30;56.30;;;;;;5100525;28;20024;-71
2021/07/03 09:23:17;;;;;;;1.05;0.63;;;30.40;56.90;;;;;;5100224;28;20111;-71
2021/07/03 09:25:47;;;;;;;1.00;0.70;;;30.40;54.90;;;;;;5100445;28;20039;-71
2021/07/03 09:28:14;;;;;;;2.78;0.77;;;30.60;55.50;;;;;;5100011;28;20032;-72
2021/07/03 09:30:43;;;;;;;1.23;0.55;;;31.00;58.70;;;;;;5100367;28;20034;-72
2021/07/03 09:33:09;;;;;;;3.88;0.60;;;31.20;55.30;;;;;;5100289;28;20108;-71
2021/07/03 09:35:36;;;;;;;3.63;0.60;;;31.10;58.40;;;;;;5100297;28;20110;-72
2021/07/03 09:38:05;;;;;;;3.08;0.80;;;31.20;53.40;;;;;;5100226;28;20028;-72
2021/07/03 09:40:33;;;;;;;1.48;0.85;;;31.60;51.70;;;;;;5100138;28;20035;-72
2021/07/03 09:43:04;;;;;;;1.45;0.60;;;31.80;56.60;;;;;;5099918;28;20032;-71
2021/07/03 09:45:30;;;;;;;3.53;0.80;;;31.80;54.60;;;;;;5099758;28;20036;-72
2021/07/03 09:48:03;;;;;;;1.40;0.65;;;31.70;52.50;;;;;;5099646;28;20031;-72
2021/07/03 09:50:29;;;;;;;1.92;0.75;;;32.10;54.20;;;;;;5099724;28;20020;-72
2021/07/03 09:53:00;;;;;;;1.88;0.70;;;32.50;52.80;;;;;;5099603;28;20031;-72
2021/07/03 09:55:26;;;;;;;1.65;0.70;;;32.50;53.70;;;;;;5098909;28;20097;-72
2021/07/03 09:57:52;;;;;;;1.92;0.70;;;32.30;52.90;;;;;;5099556;28;20028;-72
2021/07/03 10:00:18;;;;;;;2.80;0.70;;;32.30;53.60;;;;;;5099488;28;20408;-72
2021/07/03 10:02:44;;;;;;;1.92;0.60;;;32.00;52.60;;;;;;5099703;28;20020;-72
2021/07/03 10:05:10;;;;;;;1.58;0.98;;;31.90;54.00;;;;;;5099673;28;20092;-71
2021/07/03 10:07:45;;;;;;;0.80;0.57;;;31.60;54.40;;;;;;5099395;28;20058;-71
2021/07/03 10:10:30;;;;;;;1.77;0.82;;;30.80;54.50;;;;;;5099301;28;20078;-71
2021/07/03 10:13:03;;;;;;;1.30;0.60;;;30.40;56.10;;;;;;5099383;28;20103;-71
2021/07/03 10:15:34;;;;;;;1.65;0.60;;;30.10;53.80;;;;;;5099452;28;20073;-71
2021/07/03 10:18:10;;;;;;;5.43;0.95;;;30.20;54.10;;;;;;5098059;28;20024;-72
2021/07/03 10:20:37;;;;;;;16.63;1.05;;;30.20;55.00;;;;;;5110054;28;20027;-71
2021/07/03 10:23:03;;;;;;;1.23;0.60;;;30.00;56.40;;;;;;5119787;28;20342;-71
2021/07/03 10:25:38;;;;;;;3.17;0.70;;;29.90;58.20;;;;;;5119736;28;20032;-71
2021/07/03 10:28:08;;;;;;;2.47;0.47;;;29.70;56.70;;;;;;5119608;28;20070;-71
2021/07/03 10:30:36;;;;;;;3.88;0.63;;;30.00;59.30;;;;;;5119363;28;20023;-71
2021/07/03 10:33:03;;;;;;;2.55;0.77;;;30.40;55.80;;;;;;5119572;28;20028;-71
2021/07/03 10:35:43;;;;;;;3.20;0.73;;;30.80;52.00;;;;;;5119504;28;20027;-71
2021/07/03 10:38:20;;;;;;;1.33;0.70;;;31.00;57.60;;;;;;5119534;28;20088;-71
2021/07/03 10:40:47;;;;;;;2.03;0.90;;;30.90;54.10;;;;;;5119495;28;20084;-71
2021/07/03 10:43:14;;;;;;;2.60;0.60;;;31.00;52.80;;;;;;5119249;28;20361;-71
2021/07/03 10:45:52;;;;;;;1.92;0.90;;;31.10;56.00;;;;;;5119312;28;20031;-71
2021/07/03 10:48:24;;;;;;;2.03;0.50;;;31.30;54.80;;;;;;5115443;28;20063;-71
2021/07/03 10:50:54;;;;;;;1.58;0.50;;;31.50;56.60;;;;;;5108593;28;20072;-71
2021/07/03 10:53:30;;;;;;;2.10;0.93;;;31.70;57.20;;;;;;5119129;28;20111;-71
2021/07/03 10:56:09;;;;;;;2.42;0.80;;;31.70;55.00;;;;;;5100631;28;20038;-71
2021/07/03 10:58:37;;;;;;;2.00;0.55;;;31.70;52.70;;;;;;5119123;28;20035;-71
2021/07/03 11:01:08;;;;;;;2.70;0.77;;;31.70;51.00;;;;;;5119071;28;20032;-71
2021/07/03 11:03:54;;;;;;;5.22;0.68;;;31.80;54.00;;;;;;5118952;28;20039;-71
2021/07/03 11:06:22;;;;;;;4.68;0.88;;;31.90;56.20;;;;;;5117793;28;20331;-71
2021/07/03 11:08:48;;;;;;;2.03;0.80;;;31.70;57.90;;;;;;5117870;28;20024;-71
2021/07/03 11:11:16;;;;;;;1.73;0.80;;;31.70;56.00;;;;;;5118529;28;20027;-71
2021/07/03 11:13:44;;;;;;;1.83;0.80;;;31.60;51.00;;;;;;5118523;28;20027;-71
2021/07/03 11:16:12;;;;;;;3.75;0.80;;;31.60;54.30;;;;;;5118400;28;20494;-71
2021/07/03 11:18:43;;;;;;;2.97;0.90;;;31.70;53.40;;;;;;5118687;28;20034;-71
2021/07/03 11:21:11;;;;;;;2.40;0.80;;;31.80;52.30;;;;;;5118684;28;20062;-71
2021/07/03 11:23:37;;;;;;;3.75;0.68;;;31.90;56.10;;;;;;5118268;28;20058;-71
2021/07/03 11:26:15;;;;;;;4.57;1.00;;;31.80;54.90;;;;;;5118526;28;20065;-71
2021/07/03 11:28:41;;;;;;;1.23;0.60;;;31.60;52.50;;;;;;5118431;28;20031;-71
2021/07/03 11:31:07;;;;;;;2.20;0.88;;;31.20;56.90;;;;;;5118432;28;20090;-71
2021/07/03 11:33:35;;;;;;;4.03;0.82;;;31.00;51.30;;;;;;5118082;28;20112;-71
2021/07/03 11:36:03;;;;;;;1.73;0.90;;;30.90;54.10;;;;;;5118355;28;20027;-71
2021/07/03 11:38:30;;;;;;;3.70;0.75;;;31.00;51.90;;;;;;5118300;28;20038;-71
2021/07/03 11:41:01;;;;;;;1.80;0.95;;;30.90;55.60;;;;;;5118294;28;20038;-71
2021/07/03 11:43:29;;;;;;;2.17;0.70;;;30.60;54.20;;;;;;5118063;28;20457;-71
2021/07/03 11:45:55;;;;;;;1.85;0.73;;;30.30;56.40;;;;;;5117849;28;20419;-71
2021/07/03 11:48:23;;;;;;;2.05;0.75;;;30.40;57.70;;;;;;5118055;28;20058;-71
2021/07/03 11:51:00;;;;;;;2.33;0.60;;;30.50;58.30;;;;;;5118095;28;20035;-71
2021/07/03 11:53:29;;;;;;;2.95;0.77;;;30.50;55.70;;;;;;5117742;28;20048;-71
2021/07/03 11:55:57;;;;;;;2.90;0.82;;;30.20;53.00;;;;;;5117619;28;20336;-71
2021/07/03 11:58:33;;;;;;;2.03;0.70;;;29.90;54.00;;;;;;5117651;28;20416;-71
2021/07/03 12:01:01;;;;;;;2.38;1.02;;;29.80;58.30;;;;;;5117939;28;20024;-71
2021/07/03 12:03:30;;;;;;;2.03;1.00;;;29.60;57.20;;;;;;5117859;28;20075;-71
2021/07/03 12:05:58;;;;;;;1.85;1.10;;;29.20;58.20;;;;;;5117528;28;20027;-71
2021/07/03 12:08:33;;;;;;;2.60;0.80;;;29.40;56.20;;;;;;5117733;28;20085;-71
2021/07/03 12:11:04;;;;;;;2.05;0.80;;;29.50;61.30;;;;;;5117833;28;20039;-71
2021/07/03 12:13:36;;;;;;;2.17;0.80;;;29.50;59.10;;;;;;5117656;28;20308;-71
2021/07/03 12:16:11;;;;;;;3.03;0.90;;;29.60;62.20;;;;;;5117305;28;20027;-71
2021/07/03 12:18:46;;;;;;;1.80;0.93;;;29.60;55.20;;;;;;5117139;28;20438;-71
2021/07/03 12:21:12;;;;;;;3.08;0.90;;;29.50;58.40;;;;;;5117663;28;20023;-71
2021/07/03 12:24:02;;;;;;;4.45;1.00;;;29.20;55.70;;;;;;5117288;28;20143;-71
2021/07/03 12:26:33;;;;;;;3.30;1.75;;;29.10;62.60;;;;;;5117144;28;20446;-71
2021/07/03 12:29:05;;;;;;;1.80;0.80;;;29.00;58.80;;;;;;5117205;28;20051;-71
2021/07/03 12:31:33;;;;;;;3.45;0.98;;;28.80;64.00;;;;;;5117493;28;20020;-71
2021/07/03 12:34:07;;;;;;;1.13;0.90;;;28.80;56.10;;;;;;5117337;28;20031;-71
2021/07/03 12:36:34;;;;;;;2.15;0.80;;;28.90;56.90;;;;;;5117347;28;20120;-71
2021/07/03 12:39:05;;;;;;;3.25;1.02;;;28.90;58.70;;;;;;5117401;28;20039;-71
2021/07/03 12:41:31;;;;;;;3.05;0.90;;;28.90;56.80;;;;;;5117554;28;20076;-71
2021/07/03 12:43:58;;;;;;;4.60;1.00;;;29.00;59.20;;;;;;5117410;28;20408;-71
2021/07/03 12:46:34;;;;;;;1.65;1.15;;;29.20;61.40;;;;;;5117295;28;20102;-71
2021/07/03 12:49:00;;;;;;;2.90;1.00;;;29.30;56.40;;;;;;5117261;28;20034;-71